createdAt,value
2023-05-23T00:00:01.651Z,15.32
2023-05-23T00:02:29.413Z,16.42
2023-05-23T00:04:58.734Z,15.18
2023-05-23T00:07:26.584Z,15.70
2023-05-23T00:09:53.954Z,15.60
2023-05-23T00:12:21.395Z,14.98
2023-05-23T00:14:48.885Z,14.27
2023-05-23T00:17:17.771Z,12.90
2023-05-23T00:19:45.912Z,12.18
2023-05-23T00:22:15.932Z,12.15
2023-05-23T00:24:43.302Z,11.30
2023-05-23T00:27:10.681Z,12.23
2023-05-23T00:29:38.013Z,13.07
2023-05-23T00:32:05.558Z,11.82
2023-05-23T00:34:33.139Z,12.73
2023-05-23T00:37:02.427Z,13.27
2023-05-23T00:39:29.907Z,13.27
2023-05-23T00:41:58.134Z,12.10
2023-05-23T00:44:25.498Z,12.40
2023-05-23T00:46:57.220Z,12.48
2023-05-23T00:49:27.225Z,13.65
2023-05-23T00:51:54.730Z,14.45
2023-05-23T00:54:25.730Z,14.05
2023-05-23T00:56:53.135Z,14.88
2023-05-23T00:59:23.415Z,16.40
2023-05-23T01:01:53.067Z,16.50
2023-05-23T01:09:36.814Z,15.07
2023-05-23T01:12:04.197Z,17.02
2023-05-23T01:14:52.660Z,16.25
2023-05-23T01:17:27.233Z,17.23
2023-05-23T01:20:05.306Z,17.13
2023-05-23T01:22:54.132Z,19.52
2023-05-23T01:25:24.653Z,16.83
2023-05-23T01:27:56.822Z,18.67
2023-05-23T01:30:25.710Z,19.52
2023-05-23T01:32:55.245Z,24.98
2023-05-23T01:43:12.577Z,26.02
2023-05-23T01:45:40.814Z,21.77
2023-05-23T01:48:09.557Z,24.73
2023-05-23T01:50:37.406Z,24.23
2023-05-23T01:53:05.703Z,25.83
2023-05-23T01:55:33.365Z,22.92
2023-05-23T01:58:01.249Z,25.85
2023-05-23T02:00:28.654Z,24.55
2023-05-23T02:02:56.170Z,21.85
2023-05-23T02:05:23.644Z,23.48
2023-05-23T02:07:50.989Z,23.67
2023-05-23T02:10:20.658Z,21.52
2023-05-23T02:12:48.035Z,19.17
2023-05-23T02:15:15.563Z,20.00
2023-05-23T02:17:43.331Z,19.83
2023-05-23T02:20:11.111Z,20.40
2023-05-23T02:22:39.335Z,20.73
2023-05-23T02:25:07.035Z,19.73
2023-05-23T02:27:34.412Z,19.60
2023-05-23T02:30:01.800Z,23.25
2023-05-23T02:32:30.529Z,22.55
2023-05-23T02:34:58.433Z,19.25
2023-05-23T02:37:25.820Z,19.27
2023-05-23T02:39:53.166Z,21.30
2023-05-23T02:42:20.555Z,20.92
2023-05-23T02:44:47.943Z,19.25
2023-05-23T02:47:15.338Z,20.33
2023-05-23T02:49:42.682Z,20.75
2023-05-23T02:52:10.109Z,20.30
2023-05-23T02:54:37.490Z,21.20
2023-05-23T02:57:05.293Z,20.42
2023-05-23T02:59:32.646Z,20.30
2023-05-23T03:02:00.058Z,24.05
2023-05-23T03:04:29.825Z,21.98
2023-05-23T03:06:59.860Z,19.25
2023-05-23T03:09:27.318Z,19.23
2023-05-23T03:11:54.771Z,20.60
2023-05-23T03:14:22.219Z,28.25
2023-05-23T03:16:49.727Z,22.30
2023-05-23T03:19:17.228Z,22.42
2023-05-23T03:21:45.789Z,22.90
2023-05-23T03:24:13.236Z,25.23
2023-05-23T03:26:41.199Z,26.23
2023-05-23T03:29:11.136Z,27.00
2023-05-23T03:31:38.648Z,34.85
2023-05-23T03:34:06.219Z,35.88
2023-05-23T03:36:34.400Z,33.42
2023-05-23T03:39:01.863Z,32.78
2023-05-23T03:41:29.346Z,32.22
2023-05-23T03:43:56.841Z,30.55
2023-05-23T03:46:24.304Z,27.23
2023-05-23T03:48:52.263Z,28.58
2023-05-23T03:51:19.755Z,28.42
2023-05-23T03:53:47.304Z,29.00
2023-05-23T03:56:14.773Z,26.70
2023-05-23T03:58:42.172Z,24.65
2023-05-23T04:01:09.671Z,21.48
2023-05-23T04:03:37.158Z,24.92
2023-05-23T04:06:04.776Z,23.23
2023-05-23T04:08:34.217Z,20.65
2023-05-23T04:11:02.264Z,22.05
2023-05-23T04:13:31.397Z,19.77
2023-05-23T04:16:01.690Z,23.77
2023-05-23T04:18:29.231Z,21.95
2023-05-23T04:20:56.815Z,22.40
2023-05-23T04:23:24.178Z,21.73
2023-05-23T04:25:51.834Z,19.38
2023-05-23T04:28:19.216Z,22.63
2023-05-23T04:30:46.594Z,21.92
2023-05-23T04:33:13.971Z,18.98
2023-05-23T04:35:41.668Z,21.25
2023-05-23T04:38:09.315Z,19.63
2023-05-23T04:40:36.867Z,18.77
2023-05-23T04:43:04.334Z,19.58
2023-05-23T04:45:32.078Z,17.33
2023-05-23T04:47:59.474Z,18.05
2023-05-23T04:50:28.885Z,18.88
2023-05-23T04:52:56.508Z,19.02
2023-05-23T04:55:24.330Z,19.30
2023-05-23T04:57:51.766Z,17.67
2023-05-23T05:00:20.625Z,16.95
2023-05-23T05:02:48.029Z,15.85
2023-05-23T05:05:15.576Z,16.17
2023-05-23T05:07:42.941Z,20.05
2023-05-23T05:10:17.202Z,17.45
2023-05-23T05:12:49.852Z,15.57
2023-05-23T05:15:17.779Z,15.57
2023-05-23T05:17:47.003Z,14.75
2023-05-23T05:20:15.632Z,14.95
2023-05-23T05:22:43.827Z,19.45
2023-05-23T05:25:12.111Z,17.48
2023-05-23T05:27:40.629Z,15.25
2023-05-23T05:30:09.169Z,16.63
2023-05-23T05:32:36.677Z,16.80
2023-05-23T05:35:04.852Z,15.85
2023-05-23T05:37:32.234Z,16.30
2023-05-23T05:40:03.443Z,16.25
2023-05-23T05:42:31.100Z,18.45
2023-05-23T05:44:58.476Z,19.10
2023-05-23T05:47:26.221Z,16.73
2023-05-23T05:49:53.672Z,17.23
2023-05-23T05:52:21.026Z,17.63
2023-05-23T05:54:48.420Z,17.75
2023-05-23T05:57:15.875Z,16.52
2023-05-23T05:59:43.232Z,15.02
2023-05-23T06:02:10.687Z,18.13
2023-05-23T06:04:38.124Z,14.68
2023-05-23T06:07:05.737Z,18.08
2023-05-23T06:09:33.153Z,15.45
2023-05-23T06:12:01.546Z,16.65
2023-05-23T06:14:28.961Z,14.88
2023-05-23T06:16:56.831Z,13.43
2023-05-23T06:19:24.273Z,13.48
2023-05-23T06:21:51.749Z,13.02
2023-05-23T06:24:19.151Z,12.75
2023-05-23T06:26:46.601Z,12.75
2023-05-23T06:29:14.381Z,10.75
2023-05-23T06:31:41.834Z,9.43
2023-05-23T06:34:09.219Z,10.25
2023-05-23T06:36:36.668Z,8.45
2023-05-23T06:39:04.089Z,8.77
2023-05-23T06:41:31.465Z,8.48
2023-05-23T06:43:58.884Z,8.68
2023-05-23T06:46:26.276Z,9.00
2023-05-23T06:48:59.503Z,9.32
2023-05-23T06:51:34.222Z,9.52
2023-05-23T06:54:01.664Z,10.65
2023-05-23T06:56:29.049Z,8.80
2023-05-23T06:58:56.435Z,9.98
2023-05-23T07:01:23.953Z,8.40
2023-05-23T07:03:51.395Z,8.88
2023-05-23T07:06:18.828Z,8.70
2023-05-23T07:08:47.027Z,9.35
2023-05-23T07:11:14.435Z,8.30
2023-05-23T07:13:41.878Z,8.27
2023-05-23T07:16:09.278Z,7.13
2023-05-23T07:18:38.640Z,8.00
2023-05-23T07:21:06.308Z,7.13
2023-05-23T07:23:37.095Z,7.15
2023-05-23T07:26:05.178Z,7.70
2023-05-23T07:28:32.576Z,7.57
2023-05-23T07:31:00.009Z,7.72
2023-05-23T07:33:27.382Z,7.57
2023-05-23T07:35:54.829Z,7.47
2023-05-23T07:38:22.243Z,8.43
2023-05-23T07:40:58.894Z,12.80
2023-05-23T07:43:30.419Z,10.25
2023-05-23T07:45:57.887Z,11.70
2023-05-23T07:48:27.326Z,8.48
2023-05-23T07:50:55.789Z,8.88
2023-05-23T07:56:03.120Z,8.65
2023-05-23T07:58:30.558Z,11.88
2023-05-23T08:00:58.296Z,9.82
2023-05-23T08:03:25.965Z,14.38
2023-05-23T08:05:53.321Z,12.63
2023-05-23T08:08:20.753Z,8.48
2023-05-23T08:10:48.185Z,10.13
2023-05-23T08:13:16.652Z,11.32
2023-05-23T08:15:44.057Z,8.57
2023-05-23T08:18:11.694Z,8.98
2023-05-23T08:20:39.322Z,8.55
2023-05-23T08:23:06.896Z,12.77
2023-05-23T08:25:34.379Z,12.23
2023-05-23T08:28:02.231Z,11.52
2023-05-23T08:30:29.973Z,14.38
2023-05-23T08:32:58.341Z,7.82
2023-05-23T08:35:25.891Z,9.02
2023-05-23T08:37:53.588Z,8.63
2023-05-23T08:40:23.038Z,7.35
2023-05-23T08:42:51.034Z,7.10
2023-05-23T08:45:19.532Z,7.25
2023-05-23T08:47:47.704Z,7.45
2023-05-23T08:50:17.230Z,6.15
2023-05-23T08:52:51.495Z,6.80
2023-05-23T08:55:19.369Z,7.80
2023-05-23T08:57:47.088Z,5.00
2023-05-23T09:00:15.288Z,5.15
2023-05-23T09:02:45.758Z,5.40
2023-05-23T09:05:13.945Z,4.72
2023-05-23T09:07:41.618Z,5.43
2023-05-23T09:10:10.270Z,4.90
2023-05-23T09:12:38.099Z,5.53
2023-05-23T09:15:06.502Z,4.82
2023-05-23T09:17:33.988Z,4.75
2023-05-23T09:20:01.698Z,3.92
2023-05-23T09:22:29.589Z,3.13
2023-05-23T09:24:57.463Z,3.60
2023-05-23T09:27:25.187Z,4.93
2023-05-23T09:29:52.577Z,3.42
2023-05-23T09:32:21.164Z,3.22
2023-05-23T09:34:51.553Z,3.42
2023-05-23T09:37:19.776Z,3.30
2023-05-23T09:39:49.126Z,4.10
2023-05-23T09:42:22.334Z,4.38
2023-05-23T09:44:50.180Z,4.05
2023-05-23T09:47:18.560Z,3.97
2023-05-23T09:49:46.778Z,3.50
2023-05-23T09:52:14.200Z,3.67
2023-05-23T09:54:41.824Z,3.38
2023-05-23T09:57:11.567Z,4.10
2023-05-23T09:59:42.992Z,4.25
2023-05-23T10:02:12.565Z,3.55
2023-05-23T10:04:43.747Z,3.05
2023-05-23T10:07:22.590Z,4.03
2023-05-23T10:09:57.520Z,3.45
2023-05-23T10:12:45.336Z,3.22
2023-05-23T10:15:14.545Z,2.90
2023-05-23T10:18:01.047Z,3.53
2023-05-23T10:20:32.177Z,4.13
2023-05-23T10:23:03.606Z,7.90
2023-05-23T10:25:31.268Z,3.80
2023-05-23T10:28:02.460Z,4.85
2023-05-23T10:30:31.483Z,4.80
2023-05-23T10:33:00.183Z,2.95
2023-05-23T10:35:40.113Z,3.05
2023-05-23T10:38:10.434Z,2.80
2023-05-23T10:40:41.220Z,4.57
2023-05-23T10:43:11.877Z,3.90
2023-05-23T10:45:42.985Z,2.50
2023-05-23T10:48:23.432Z,3.50
2023-05-23T10:51:05.120Z,3.53
2023-05-23T10:53:32.972Z,3.80
2023-05-23T10:56:00.433Z,4.60
2023-05-23T10:58:30.411Z,4.38
2023-05-23T11:01:00.635Z,3.85
2023-05-23T11:03:35.704Z,5.03
2023-05-23T11:06:04.167Z,4.40
2023-05-23T11:08:48.454Z,4.28
2023-05-23T11:11:16.389Z,4.85
2023-05-23T11:14:03.121Z,4.57
2023-05-23T11:16:41.171Z,4.55
2023-05-23T11:19:26.198Z,4.78
2023-05-23T11:21:54.952Z,2.97
2023-05-23T11:24:22.770Z,10.55
2023-05-23T11:26:55.344Z,3.00
2023-05-23T11:29:22.754Z,2.50
2023-05-23T11:31:50.193Z,3.63
2023-05-23T11:34:18.977Z,4.07
2023-05-23T11:36:46.659Z,3.50
2023-05-23T11:39:15.786Z,4.32
2023-05-23T11:41:44.152Z,4.47
2023-05-23T11:44:14.635Z,3.03
2023-05-23T11:46:42.045Z,4.75
2023-05-23T11:49:12.951Z,3.90
2023-05-23T11:51:40.336Z,10.60
2023-05-23T11:54:07.792Z,3.10
2023-05-23T11:56:39.980Z,3.67
2023-05-23T11:59:07.369Z,2.72
2023-05-23T12:01:38.387Z,5.25
2023-05-23T12:04:11.513Z,2.63
2023-05-23T12:06:40.957Z,3.83
2023-05-23T12:09:08.807Z,2.45
2023-05-23T12:11:36.534Z,8.55
2023-05-23T12:14:06.781Z,2.53
2023-05-23T12:16:34.605Z,2.30
2023-05-23T12:19:02.726Z,2.08
2023-05-23T12:21:46.726Z,2.55
2023-05-23T12:24:18.038Z,1.95
2023-05-23T12:26:48.491Z,2.50
2023-05-23T12:29:16.707Z,3.20
2023-05-23T12:31:44.258Z,3.08
2023-05-23T12:34:12.793Z,4.53
2023-05-23T12:36:48.653Z,6.43
2023-05-23T12:39:17.009Z,4.10
2023-05-23T12:41:46.064Z,4.80
2023-05-23T12:44:17.063Z,6.38
2023-05-23T12:46:44.502Z,6.68
2023-05-23T12:49:12.011Z,6.60
2023-05-23T12:51:39.469Z,6.82
2023-05-23T12:54:07.066Z,9.60
2023-05-23T12:56:34.508Z,7.07
2023-05-23T12:59:02.277Z,7.82
2023-05-23T13:01:29.836Z,9.02
2023-05-23T13:03:57.391Z,9.07
2023-05-23T13:06:24.846Z,7.93
2023-05-23T13:08:54.715Z,8.50
2023-05-23T13:11:22.773Z,7.25
2023-05-23T13:13:51.127Z,6.15
2023-05-23T13:16:19.227Z,7.75
2023-05-23T13:18:46.779Z,6.93
2023-05-23T13:21:14.240Z,9.13
2023-05-23T13:23:41.879Z,10.93
2023-05-23T13:26:09.277Z,8.02
2023-05-23T13:28:36.650Z,8.82
2023-05-23T13:31:04.081Z,9.75
2023-05-23T13:33:31.472Z,9.55
2023-05-23T13:35:58.928Z,9.75
2023-05-23T13:38:27.872Z,11.25
2023-05-23T13:40:55.636Z,13.52
2023-05-23T13:43:23.277Z,11.77
2023-05-23T13:45:50.648Z,10.32
2023-05-23T13:48:18.068Z,12.32
2023-05-23T13:50:46.098Z,13.80
2023-05-23T13:53:17.009Z,8.73
2023-05-23T13:55:45.504Z,12.93
2023-05-23T13:58:13.067Z,11.43
2023-05-23T14:00:41.506Z,12.70
2023-05-23T14:03:09.294Z,8.77
2023-05-23T14:05:36.890Z,10.85
2023-05-23T14:08:04.780Z,12.27
2023-05-23T14:10:33.677Z,12.35
2023-05-23T14:13:01.663Z,10.77
2023-05-23T14:15:29.068Z,12.40
2023-05-23T14:17:57.301Z,14.70
2023-05-23T14:20:24.768Z,10.82
2023-05-23T14:22:52.399Z,11.45
2023-05-23T14:25:20.004Z,11.65
2023-05-23T14:27:47.760Z,9.80
2023-05-23T14:30:15.265Z,11.65
2023-05-23T14:32:42.740Z,10.75
2023-05-23T14:35:11.226Z,9.15
2023-05-23T14:37:39.410Z,11.18
2023-05-23T14:40:07.338Z,14.05
2023-05-23T14:42:34.714Z,11.63
2023-05-23T14:45:02.100Z,12.15
2023-05-23T14:47:29.691Z,15.38
2023-05-23T14:49:57.030Z,12.32
2023-05-23T14:52:24.538Z,13.50
2023-05-23T14:54:52.051Z,15.25
2023-05-23T14:57:19.483Z,12.73
2023-05-23T14:59:46.916Z,19.08
2023-05-23T15:02:14.373Z,14.63
2023-05-23T15:04:42.024Z,13.52
2023-05-23T15:07:09.843Z,12.10
2023-05-23T15:09:37.759Z,10.40
2023-05-23T15:12:07.828Z,12.65
2023-05-23T15:14:35.230Z,10.15
2023-05-23T15:17:08.136Z,12.70
2023-05-23T15:19:39.701Z,11.07
2023-05-23T15:22:07.640Z,10.20
2023-05-23T15:24:36.852Z,13.40
2023-05-23T15:27:19.461Z,8.52
2023-05-23T15:29:47.825Z,10.35
2023-05-23T15:32:15.377Z,13.52
2023-05-23T15:34:42.939Z,8.50
2023-05-23T15:37:10.332Z,9.48
2023-05-23T15:39:37.694Z,11.48
2023-05-23T15:42:05.292Z,10.98
2023-05-23T15:44:32.718Z,8.38
2023-05-23T15:47:00.224Z,10.20
2023-05-23T15:49:27.648Z,12.93
2023-05-23T15:51:55.604Z,10.88
2023-05-23T15:54:23.263Z,12.32
2023-05-23T15:56:50.902Z,10.68
2023-05-23T15:59:18.254Z,7.40
2023-05-23T16:01:45.934Z,9.40
2023-05-23T16:04:13.474Z,13.25
2023-05-23T16:06:40.879Z,16.13
2023-05-23T16:09:08.296Z,9.90
2023-05-23T16:11:35.729Z,11.13
2023-05-23T16:14:03.164Z,8.80
2023-05-23T16:16:30.561Z,13.60
2023-05-23T16:18:57.981Z,10.27
2023-05-23T16:21:25.682Z,9.50
2023-05-23T16:23:53.654Z,13.15
2023-05-23T16:26:21.476Z,13.07
2023-05-23T16:28:48.890Z,9.07
2023-05-23T16:31:17.168Z,9.95
2023-05-23T16:33:45.024Z,10.80
2023-05-23T16:36:12.410Z,11.45
2023-05-23T16:38:40.221Z,11.30
2023-05-23T16:41:07.628Z,10.90
2023-05-23T16:43:35.285Z,8.60
2023-05-23T16:46:02.750Z,6.53
2023-05-23T16:48:30.151Z,12.02
2023-05-23T16:50:57.961Z,9.95
2023-05-23T16:53:25.489Z,9.70
2023-05-23T16:55:52.871Z,10.15
2023-05-23T16:58:21.307Z,8.55
2023-05-23T17:00:49.000Z,11.68
2023-05-23T17:03:16.607Z,14.02
2023-05-23T17:05:44.595Z,8.82
2023-05-23T17:08:12.199Z,9.52
2023-05-23T17:10:39.790Z,7.38
2023-05-23T17:13:07.479Z,8.52
2023-05-23T17:15:34.860Z,10.90
2023-05-23T17:18:02.260Z,8.38
2023-05-23T17:20:29.688Z,8.85
2023-05-23T17:22:57.142Z,7.63
2023-05-23T17:25:24.616Z,7.38
2023-05-23T17:27:52.026Z,10.40
2023-05-23T17:30:19.702Z,7.60
2023-05-23T17:32:47.776Z,8.02
2023-05-23T17:35:15.166Z,8.82
2023-05-23T17:37:45.202Z,9.40
2023-05-23T17:40:13.299Z,8.18
2023-05-23T17:42:41.337Z,11.10
2023-05-23T17:45:12.549Z,10.45
2023-05-23T17:47:39.964Z,10.32
2023-05-23T17:50:07.814Z,6.93
2023-05-23T17:52:36.021Z,10.82
2023-05-23T17:55:03.855Z,8.88
2023-05-23T17:57:31.589Z,9.68
2023-05-23T17:59:59.746Z,8.25
2023-05-23T18:02:27.993Z,8.52
2023-05-23T18:04:55.932Z,7.40
2023-05-23T18:07:23.391Z,8.90
2023-05-23T18:09:51.068Z,7.53
2023-05-23T18:12:18.461Z,7.50
2023-05-23T18:14:45.853Z,7.15
2023-05-23T18:17:13.436Z,11.35
2023-05-23T18:19:41.929Z,6.55
2023-05-23T18:22:09.754Z,10.80
2023-05-23T18:24:37.139Z,6.20
2023-05-23T18:27:04.878Z,7.57
2023-05-23T18:29:32.338Z,9.27
2023-05-23T18:31:59.699Z,9.20
2023-05-23T18:34:29.113Z,9.10
2023-05-23T18:36:56.878Z,10.88
2023-05-23T18:39:24.686Z,8.45
2023-05-23T18:41:52.093Z,9.35
2023-05-23T18:44:20.907Z,7.55
2023-05-23T18:46:48.667Z,9.88
2023-05-23T18:49:16.280Z,12.77
2023-05-23T18:51:43.948Z,6.32
2023-05-23T18:54:11.551Z,9.88
2023-05-23T18:56:38.898Z,7.03
2023-05-23T18:59:06.352Z,7.43
2023-05-23T19:01:33.883Z,9.88
2023-05-23T19:04:01.881Z,7.43
2023-05-23T19:06:29.340Z,8.88
2023-05-23T19:08:56.790Z,9.30
2023-05-23T19:11:24.288Z,7.68
2023-05-23T19:13:51.664Z,9.65
2023-05-23T19:16:20.691Z,9.32
2023-05-23T19:18:48.465Z,9.35
2023-05-23T19:21:16.238Z,6.70
2023-05-23T19:23:43.611Z,9.00
2023-05-23T19:26:11.230Z,9.57
2023-05-23T19:28:38.573Z,8.63
2023-05-23T19:31:07.891Z,5.90
2023-05-23T19:33:35.254Z,5.90
2023-05-23T19:36:02.657Z,7.80
2023-05-23T19:38:30.077Z,7.18
2023-05-23T19:40:57.530Z,8.02
2023-05-23T19:43:24.944Z,10.65
2023-05-23T19:45:52.362Z,4.78
2023-05-23T19:48:19.841Z,6.13
2023-05-23T19:50:47.710Z,12.20
2023-05-23T19:53:15.078Z,7.35
2023-05-23T19:55:42.995Z,6.68
2023-05-23T19:58:10.625Z,5.88
2023-05-23T20:00:38.240Z,6.97
2023-05-23T20:03:05.716Z,7.07
2023-05-23T20:05:33.175Z,7.25
2023-05-23T20:08:01.697Z,12.32
2023-05-23T20:10:29.143Z,9.00
2023-05-23T20:12:56.638Z,7.85
2023-05-23T20:15:35.355Z,7.55
2023-05-23T20:18:07.493Z,11.52
2023-05-23T20:20:35.015Z,7.70
2023-05-23T20:23:02.468Z,11.93
2023-05-23T20:25:29.844Z,10.30
2023-05-23T20:27:57.255Z,7.72
2023-05-23T20:30:25.140Z,8.20
2023-05-23T20:32:54.428Z,13.07
2023-05-23T20:35:22.782Z,10.85
2023-05-23T20:37:53.833Z,8.10
2023-05-23T20:40:22.943Z,7.70
2023-05-23T20:42:50.343Z,10.65
2023-05-23T20:45:17.799Z,7.03
2023-05-23T20:47:46.528Z,11.07
2023-05-23T20:50:14.941Z,10.43
2023-05-23T20:52:43.305Z,8.50
2023-05-23T20:55:11.090Z,11.20
2023-05-23T20:57:38.692Z,7.25
2023-05-23T21:00:13.388Z,6.75
2023-05-23T21:02:41.824Z,11.32
2023-05-23T21:05:09.910Z,6.78
2023-05-23T21:07:37.535Z,8.40
2023-05-23T21:10:05.030Z,5.85
2023-05-23T21:12:32.440Z,6.32
2023-05-23T21:14:59.852Z,9.10
2023-05-23T21:17:27.494Z,9.20
2023-05-23T21:19:55.020Z,12.88
2023-05-23T21:22:22.513Z,7.10
2023-05-23T21:24:50.659Z,11.93
2023-05-23T21:27:18.101Z,7.72
2023-05-23T21:29:47.144Z,7.43
2023-05-23T21:32:14.615Z,9.27
2023-05-23T21:34:42.037Z,7.78
2023-05-23T21:37:09.495Z,8.77
2023-05-23T21:39:50.500Z,8.88
2023-05-23T21:42:19.160Z,8.05
2023-05-23T21:44:46.823Z,9.77
2023-05-23T21:47:14.268Z,9.65
2023-05-23T21:49:41.749Z,7.95
2023-05-23T21:52:09.212Z,5.72
2023-05-23T21:54:36.602Z,11.75
2023-05-23T21:57:04.023Z,7.75
2023-05-23T21:59:31.367Z,11.73
2023-05-23T22:01:58.822Z,7.75
2023-05-23T22:04:26.368Z,8.48
2023-05-23T22:06:53.830Z,10.82
2023-05-23T22:09:21.232Z,9.48
2023-05-23T22:11:48.658Z,6.47
2023-05-23T22:14:16.099Z,5.90
2023-05-23T22:16:43.674Z,10.10
2023-05-23T22:19:12.623Z,8.10
2023-05-23T22:21:40.153Z,4.82
2023-05-23T22:24:07.664Z,7.03
2023-05-23T22:26:35.051Z,7.13
2023-05-23T22:29:02.483Z,9.68
2023-05-23T22:31:29.843Z,5.93
2023-05-23T22:33:57.309Z,7.13
2023-05-23T22:36:24.788Z,8.57
2023-05-23T22:38:52.176Z,11.50
2023-05-23T22:41:19.803Z,11.40
2023-05-23T22:43:47.291Z,7.80
2023-05-23T22:46:15.080Z,6.65
2023-05-23T22:48:43.027Z,13.35
2023-05-23T22:51:12.644Z,10.32
2023-05-23T22:53:40.082Z,6.78
2023-05-23T22:56:07.670Z,8.55
2023-05-23T22:58:35.193Z,8.43
2023-05-23T23:01:02.590Z,8.38
2023-05-23T23:03:30.059Z,14.25
2023-05-23T23:05:57.726Z,6.20
2023-05-23T23:08:25.134Z,8.88
2023-05-23T23:10:52.528Z,9.57
2023-05-23T23:13:19.913Z,8.15
2023-05-23T23:15:49.903Z,14.65
2023-05-23T23:18:19.015Z,6.97
2023-05-23T23:20:47.149Z,11.40
2023-05-23T23:23:14.938Z,9.77
2023-05-23T23:25:42.324Z,8.95
2023-05-23T23:28:09.732Z,7.25
2023-05-23T23:30:37.114Z,7.38
2023-05-23T23:33:04.509Z,10.82
2023-05-23T23:35:31.867Z,8.75
2023-05-23T23:37:59.268Z,12.80
2023-05-23T23:40:26.894Z,8.02
2023-05-23T23:42:54.273Z,7.65
2023-05-23T23:45:22.008Z,16.70
2023-05-23T23:47:49.475Z,5.10
2023-05-23T23:50:16.888Z,10.02
2023-05-23T23:52:44.257Z,8.40
2023-05-23T23:55:11.682Z,9.57
2023-05-23T23:57:39.106Z,9.35
